createdAt,value
2023-03-26T00:02:29.864Z,7.76
2023-03-26T00:05:03.034Z,7.81
2023-03-26T00:07:35.136Z,7.79
2023-03-26T00:10:08.498Z,7.79
2023-03-26T00:12:40.533Z,7.81
2023-03-26T00:15:14.098Z,7.84
2023-03-26T00:17:46.565Z,7.84
2023-03-26T00:20:18.907Z,7.80
2023-03-26T00:22:51.651Z,7.77
2023-03-26T00:25:24.953Z,7.72
2023-03-26T00:27:57.472Z,7.65
2023-03-26T00:30:29.521Z,7.59
2023-03-26T00:33:01.849Z,7.56
2023-03-26T00:35:36.807Z,7.51
2023-03-26T00:38:08.990Z,7.42
2023-03-26T00:40:44.308Z,7.36
2023-03-26T00:43:19.939Z,7.33
2023-03-26T00:45:54.564Z,7.28
2023-03-26T00:48:38.297Z,7.23
2023-03-26T00:51:18.689Z,7.20
2023-03-26T00:53:52.058Z,7.22
2023-03-26T00:56:24.404Z,7.23
2023-03-26T00:58:57.872Z,7.27
2023-03-26T01:01:31.846Z,7.26
2023-03-26T01:04:27.885Z,7.24
2023-03-26T01:07:07.645Z,7.22
2023-03-26T01:09:43.019Z,7.22
2023-03-26T01:12:19.819Z,7.21
2023-03-26T01:14:54.535Z,7.21
2023-03-26T01:17:34.320Z,7.23
2023-03-26T01:20:15.218Z,7.23
2023-03-26T01:22:52.304Z,7.22
2023-03-26T01:25:27.932Z,7.21
2023-03-26T01:28:01.137Z,7.23
2023-03-26T01:30:42.517Z,7.27
2023-03-26T01:33:23.252Z,7.34
2023-03-26T01:36:00.165Z,7.40
2023-03-26T01:38:40.516Z,7.44
2023-03-26T01:41:15.615Z,7.45
2023-03-26T01:43:53.005Z,7.44
2023-03-26T01:46:27.631Z,7.41
2023-03-26T01:48:59.772Z,7.41
2023-03-26T01:51:34.149Z,7.43
2023-03-26T01:54:10.008Z,7.44
2023-03-26T01:56:54.922Z,7.43
2023-03-26T01:59:46.455Z,7.41
2023-03-26T02:02:23.013Z,7.40
2023-03-26T02:05:01.672Z,7.41
2023-03-26T02:07:41.073Z,7.42
2023-03-26T02:10:17.474Z,7.44
2023-03-26T02:12:51.980Z,7.47
2023-03-26T02:15:24.699Z,7.47
2023-03-26T02:17:56.732Z,7.47
2023-03-26T02:20:30.419Z,7.48
2023-03-26T02:23:02.489Z,7.48
2023-03-26T02:25:37.064Z,7.47
2023-03-26T02:28:09.247Z,7.47
2023-03-26T02:30:41.522Z,7.47
2023-03-26T02:33:15.495Z,7.49
2023-03-26T02:35:47.632Z,7.49
2023-03-26T02:38:19.816Z,7.52
2023-03-26T02:40:51.893Z,7.57
2023-03-26T02:43:25.240Z,7.59
2023-03-26T02:45:57.999Z,7.61
2023-03-26T02:48:49.972Z,7.63
2023-03-26T02:51:29.851Z,7.64
2023-03-26T02:54:08.727Z,7.67
2023-03-26T02:56:46.593Z,7.70
2023-03-26T02:59:41.767Z,7.72
2023-03-26T03:02:39.077Z,7.73
2023-03-26T03:05:38.215Z,7.73
2023-03-26T03:08:29.957Z,7.70
2023-03-26T03:11:24.698Z,7.68
2023-03-26T03:13:57.413Z,7.65
2023-03-26T03:16:32.639Z,7.61
2023-03-26T03:19:09.800Z,7.57
2023-03-26T03:21:44.078Z,7.52
2023-03-26T03:24:18.727Z,7.44
2023-03-26T03:26:58.127Z,7.38
2023-03-26T03:29:42.549Z,7.35
2023-03-26T03:32:35.523Z,7.35
2023-03-26T03:35:10.214Z,7.35
2023-03-26T03:37:42.833Z,7.34
2023-03-26T03:40:15.699Z,7.32
2023-03-26T03:42:48.501Z,7.29
2023-03-26T03:45:26.593Z,7.26
2023-03-26T03:48:22.038Z,7.26
2023-03-26T03:50:54.187Z,7.26
2023-03-26T03:53:40.750Z,7.20
2023-03-26T03:56:14.904Z,7.16
2023-03-26T03:59:10.329Z,7.14
2023-03-26T04:01:46.839Z,7.15
2023-03-26T04:04:26.991Z,7.20
2023-03-26T04:07:10.365Z,7.23
2023-03-26T04:10:06.840Z,7.25
2023-03-26T04:12:58.262Z,7.24
2023-03-26T04:15:47.439Z,7.25
2023-03-26T04:18:20.527Z,7.29
2023-03-26T04:20:54.736Z,7.31
2023-03-26T04:23:32.083Z,7.29
2023-03-26T04:26:19.944Z,7.27
2023-03-26T04:29:27.960Z,7.22
2023-03-26T04:32:06.583Z,7.21
2023-03-26T04:34:38.894Z,7.23
2023-03-26T04:37:24.643Z,7.23
2023-03-26T04:40:10.545Z,7.20
2023-03-26T04:43:02.472Z,7.15
2023-03-26T04:45:58.056Z,7.08
2023-03-26T04:48:31.959Z,7.02
2023-03-26T04:51:07.294Z,6.95
2023-03-26T04:53:39.673Z,6.92
2023-03-26T04:56:45.951Z,6.90
2023-03-26T04:59:35.104Z,6.88
2023-03-26T05:02:09.757Z,6.84
2023-03-26T05:04:51.546Z,6.82
2023-03-26T05:07:25.003Z,6.81
2023-03-26T05:09:59.444Z,6.79
2023-03-26T05:12:44.125Z,6.81
2023-03-26T05:15:23.251Z,6.81
2023-03-26T05:18:13.824Z,6.85
2023-03-26T05:20:48.041Z,6.92
2023-03-26T05:23:20.224Z,7.02
2023-03-26T05:26:07.781Z,7.09
2023-03-26T05:28:41.044Z,7.10
2023-03-26T05:31:28.082Z,7.08
2023-03-26T05:34:01.580Z,7.07
2023-03-26T05:36:33.858Z,7.08
2023-03-26T05:39:37.354Z,7.12
2023-03-26T05:42:28.059Z,7.17
2023-03-26T05:45:17.179Z,7.22
2023-03-26T05:47:51.504Z,7.25
2023-03-26T05:50:24.295Z,7.31
2023-03-26T05:52:58.017Z,7.39
2023-03-26T05:56:08.702Z,7.47
2023-03-26T05:59:00.319Z,7.52
2023-03-26T06:01:51.463Z,7.54
2023-03-26T06:04:42.762Z,7.54
2023-03-26T06:07:50.767Z,7.53
2023-03-26T06:10:24.897Z,7.54
2023-03-26T06:12:57.276Z,7.54
2023-03-26T06:15:29.553Z,7.57
2023-03-26T06:18:06.851Z,7.62
2023-03-26T06:20:57.754Z,7.66
2023-03-26T06:23:52.729Z,7.70
2023-03-26T06:26:53.885Z,7.73
2023-03-26T06:29:26.427Z,7.71
2023-03-26T06:32:12.372Z,7.73
2023-03-26T06:34:56.200Z,7.77
2023-03-26T06:37:28.342Z,7.84
2023-03-26T06:40:07.099Z,7.90
2023-03-26T06:43:09.187Z,7.92
2023-03-26T06:46:06.732Z,7.97
2023-03-26T06:49:08.266Z,8.00
2023-03-26T06:51:59.667Z,8.06
2023-03-26T06:54:50.659Z,8.15
2023-03-26T06:57:52.819Z,8.26
2023-03-26T07:00:47.769Z,8.34
2023-03-26T07:03:49.448Z,8.43
2023-03-26T07:06:44.734Z,8.50
2023-03-26T07:09:35.421Z,8.55
2023-03-26T07:12:26.261Z,8.60
2023-03-26T07:15:32.127Z,8.67
2023-03-26T07:18:31.070Z,8.74
2023-03-26T07:21:04.950Z,8.80
2023-03-26T07:23:39.338Z,8.86
2023-03-26T07:26:37.403Z,8.87
2023-03-26T07:29:25.777Z,8.88
2023-03-26T07:32:21.710Z,8.93
2023-03-26T07:35:20.510Z,9.01
2023-03-26T07:38:31.437Z,9.07
2023-03-26T07:41:32.612Z,9.21
2023-03-26T07:44:36.146Z,9.35
2023-03-26T07:47:32.764Z,9.51
2023-03-26T07:50:19.691Z,9.59
2023-03-26T07:53:05.711Z,9.69
2023-03-26T07:55:54.987Z,9.72
2023-03-26T07:59:05.093Z,9.74
2023-03-26T08:02:16.936Z,9.72
2023-03-26T08:05:03.174Z,9.69
2023-03-26T08:08:09.665Z,9.63
2023-03-26T08:11:07.346Z,9.59
2023-03-26T08:14:01.555Z,9.60
2023-03-26T08:16:43.247Z,9.65
2023-03-26T08:19:33.696Z,9.70
2023-03-26T08:22:13.131Z,9.76
2023-03-26T08:24:59.477Z,9.80
2023-03-26T08:27:39.290Z,9.82
2023-03-26T08:30:18.905Z,9.79
2023-03-26T08:32:56.872Z,9.73
2023-03-26T08:35:31.070Z,9.72
2023-03-26T08:38:03.216Z,9.73
2023-03-26T08:41:08.198Z,9.69
2023-03-26T08:44:06.655Z,9.57
2023-03-26T08:47:09.219Z,9.49
2023-03-26T08:50:04.715Z,9.35
2023-03-26T08:53:03.872Z,9.22
2023-03-26T08:55:56.641Z,9.12
2023-03-26T08:59:01.155Z,9.09
2023-03-26T09:02:06.395Z,9.08
2023-03-26T09:05:20.358Z,9.15
2023-03-26T09:08:19.040Z,9.30
2023-03-26T09:11:09.195Z,9.46
2023-03-26T09:14:15.596Z,9.60
2023-03-26T09:17:21.325Z,9.76
2023-03-26T09:20:34.729Z,9.88
2023-03-26T09:23:35.139Z,9.96
2023-03-26T09:26:28.074Z,10.05
2023-03-26T09:29:26.925Z,10.09
2023-03-26T09:32:16.235Z,10.12
2023-03-26T09:35:13.227Z,10.11
2023-03-26T09:38:00.831Z,10.09
2023-03-26T09:43:54.539Z,10.12
2023-03-26T09:46:38.836Z,10.15
2023-03-26T09:49:37.090Z,10.14
2023-03-26T09:52:28.025Z,10.14
2023-03-26T09:55:28.334Z,10.13
2023-03-26T09:58:31.558Z,10.15
2023-03-26T10:01:12.672Z,10.13
2023-03-26T10:03:59.806Z,10.15
2023-03-26T10:06:53.241Z,10.14
2023-03-26T10:09:53.462Z,10.09
2023-03-26T10:12:33.491Z,10.06
2023-03-26T10:15:25.086Z,10.03
2023-03-26T10:18:27.539Z,10.01
2023-03-26T10:21:09.607Z,9.98
2023-03-26T10:24:01.683Z,9.98
2023-03-26T10:27:10.192Z,9.99
2023-03-26T10:30:08.668Z,10.03
2023-03-26T10:32:53.443Z,10.07
2023-03-26T10:35:37.625Z,10.12
2023-03-26T10:38:19.734Z,10.13
2023-03-26T10:41:00.830Z,10.22
2023-03-26T10:44:14.398Z,10.35
2023-03-26T10:47:15.348Z,10.57
2023-03-26T10:50:23.715Z,10.78
2023-03-26T10:53:00.570Z,10.98
2023-03-26T10:55:37.902Z,11.11
2023-03-26T10:58:19.648Z,11.26
2023-03-26T11:01:00.704Z,11.44
2023-03-26T11:03:52.141Z,11.55
2023-03-26T11:06:37.435Z,11.68
2023-03-26T11:09:26.440Z,11.77
2023-03-26T11:12:26.507Z,11.85
2023-03-26T11:15:08.889Z,11.94
2023-03-26T11:17:53.309Z,11.98
2023-03-26T11:20:34.124Z,12.02
2023-03-26T11:23:19.995Z,12.09
2023-03-26T11:26:10.075Z,12.14
2023-03-26T11:29:31.546Z,12.12
2023-03-26T11:32:10.536Z,12.05
2023-03-26T11:34:44.150Z,11.94
2023-03-26T11:37:21.787Z,11.79
2023-03-26T11:39:57.823Z,11.66
2023-03-26T11:42:31.493Z,11.56
2023-03-26T11:45:08.174Z,11.49
2023-03-26T11:47:46.689Z,11.47
2023-03-26T11:50:24.951Z,11.48
2023-03-26T11:53:01.475Z,11.55
2023-03-26T11:55:35.901Z,11.59
2023-03-26T11:58:18.974Z,11.56
2023-03-26T12:00:53.088Z,11.56
2023-03-26T12:03:25.964Z,11.59
2023-03-26T12:06:03.007Z,11.58
2023-03-26T12:08:40.911Z,11.61
2023-03-26T12:11:16.269Z,11.68
2023-03-26T12:13:56.420Z,11.79
2023-03-26T12:16:29.404Z,12.63
2023-03-26T12:19:05.613Z,14.36
2023-03-26T12:21:48.611Z,14.44
2023-03-26T12:24:34.979Z,14.03
2023-03-26T12:27:28.467Z,13.57
2023-03-26T12:30:13.989Z,13.23
2023-03-26T12:32:47.233Z,13.03
2023-03-26T12:35:26.895Z,12.90
2023-03-26T12:38:15.673Z,12.86
2023-03-26T12:40:49.009Z,13.01
2023-03-26T12:44:48.825Z,13.14
2023-03-26T12:47:56.096Z,13.60
2023-03-26T12:49:22.405Z,14.05
2023-03-26T12:52:11.423Z,14.10
2023-03-26T12:54:51.266Z,14.25
2023-03-26T12:57:26.644Z,14.48
2023-03-26T13:00:14.499Z,14.72
2023-03-26T13:03:05.899Z,15.44
2023-03-26T13:05:52.472Z,15.60
2023-03-26T13:08:48.226Z,16.99
2023-03-26T13:11:29.524Z,17.97
2023-03-26T13:14:15.704Z,17.59
2023-03-26T13:16:55.717Z,17.06
2023-03-26T13:19:34.524Z,16.60
2023-03-26T13:22:19.345Z,16.24
2023-03-26T13:25:01.118Z,15.96
2023-03-26T13:27:45.708Z,15.78
2023-03-26T13:30:27.374Z,15.70
2023-03-26T13:33:24.871Z,15.70
2023-03-26T13:36:19.264Z,15.84
2023-03-26T13:39:11.118Z,15.97
2023-03-26T13:41:58.623Z,15.93
2023-03-26T13:44:39.924Z,15.83
2023-03-26T13:47:15.509Z,15.71
2023-03-26T13:49:53.029Z,15.81
2023-03-26T13:52:29.303Z,15.87
2023-03-26T13:55:19.382Z,16.57
2023-03-26T13:57:57.872Z,17.64
2023-03-26T14:00:38.498Z,17.08
2023-03-26T14:03:20.284Z,16.72
2023-03-26T14:05:57.231Z,16.30
2023-03-26T14:08:34.529Z,15.89
2023-03-26T14:11:14.105Z,15.41
2023-03-26T14:13:53.732Z,15.10
2023-03-26T14:16:30.805Z,14.87
2023-03-26T14:19:16.370Z,14.68
2023-03-26T14:22:03.782Z,14.44
2023-03-26T14:24:54.800Z,14.26
2023-03-26T14:27:45.238Z,14.10
2023-03-26T14:30:50.707Z,13.97
2023-03-26T14:33:44.062Z,13.94
2023-03-26T14:36:30.918Z,13.89
2023-03-26T14:39:32.689Z,13.90
2023-03-26T14:42:16.425Z,13.90
2023-03-26T14:45:20.843Z,13.91
2023-03-26T14:48:27.916Z,13.87
2023-03-26T14:51:11.777Z,13.84
2023-03-26T14:53:49.683Z,13.80
2023-03-26T14:56:52.052Z,13.75
2023-03-26T15:00:15.395Z,13.68
2023-03-26T15:03:26.304Z,13.61
2023-03-26T15:06:26.560Z,13.51
2023-03-26T15:09:46.447Z,13.47
2023-03-26T15:12:33.044Z,13.72
2023-03-26T15:15:42.161Z,13.75
2023-03-26T15:18:47.781Z,13.76
2023-03-26T15:21:56.773Z,13.75
2023-03-26T15:24:59.364Z,13.94
2023-03-26T15:27:52.179Z,13.93
2023-03-26T15:30:49.329Z,13.82
2023-03-26T15:33:56.964Z,13.73
2023-03-26T15:37:02.598Z,13.57
2023-03-26T15:40:19.204Z,13.46
2023-03-26T15:43:02.037Z,13.38
2023-03-26T15:45:39.250Z,13.25
2023-03-26T15:48:53.666Z,13.15
2023-03-26T15:51:47.117Z,13.05
2023-03-26T15:54:27.963Z,12.95
2023-03-26T15:57:20.757Z,12.93
2023-03-26T16:00:12.753Z,12.96
2023-03-26T16:02:53.869Z,12.97
2023-03-26T16:05:40.729Z,12.97
2023-03-26T16:08:24.622Z,12.94
2023-03-26T16:10:59.259Z,12.89
2023-03-26T16:13:36.277Z,12.88
2023-03-26T16:16:41.785Z,12.87
2023-03-26T16:19:50.359Z,12.85
2023-03-26T16:22:56.199Z,12.79
2023-03-26T16:25:35.503Z,12.68
2023-03-26T16:28:28.469Z,12.59
2023-03-26T16:31:38.405Z,12.46
2023-03-26T16:34:31.488Z,12.30
2023-03-26T16:37:28.644Z,12.17
2023-03-26T16:40:30.398Z,12.00
2023-03-26T16:43:14.559Z,11.79
2023-03-26T16:45:56.468Z,11.63
2023-03-26T16:48:38.228Z,11.45
2023-03-26T16:51:17.322Z,11.29
2023-03-26T16:53:57.950Z,11.15
2023-03-26T16:56:38.862Z,11.03
2023-03-26T16:59:36.289Z,10.94
2023-03-26T17:02:22.362Z,10.84
2023-03-26T17:05:01.436Z,10.77
2023-03-26T17:07:40.068Z,10.71
2023-03-26T17:10:23.782Z,10.65
2023-03-26T17:13:02.916Z,10.61
2023-03-26T17:15:45.076Z,10.55
2023-03-26T17:18:32.359Z,10.49
2023-03-26T17:21:12.254Z,10.41
2023-03-26T17:24:04.188Z,10.37
2023-03-26T17:26:49.891Z,10.33
2023-03-26T17:29:40.952Z,10.28
2023-03-26T17:32:15.263Z,10.22
2023-03-26T17:35:00.946Z,10.17
2023-03-26T17:37:41.132Z,10.12
2023-03-26T17:40:54.855Z,10.07
2023-03-26T17:43:40.471Z,10.00
2023-03-26T17:46:32.046Z,9.94
2023-03-26T17:49:09.747Z,9.92
2023-03-26T17:51:51.634Z,9.88
2023-03-26T17:54:30.419Z,9.85
2023-03-26T17:57:07.795Z,9.82
2023-03-26T17:59:42.469Z,9.79
2023-03-26T18:02:19.937Z,9.75
2023-03-26T18:04:54.995Z,9.72
2023-03-26T18:08:09.577Z,9.69
2023-03-26T18:11:02.069Z,9.67
2023-03-26T18:13:58.750Z,9.64
2023-03-26T18:16:37.918Z,9.60
2023-03-26T18:19:19.580Z,9.59
2023-03-26T18:21:54.976Z,9.59
2023-03-26T18:24:31.590Z,9.56
2023-03-26T18:27:08.773Z,9.51
2023-03-26T18:29:46.474Z,9.47
2023-03-26T18:32:23.781Z,9.43
2023-03-26T18:35:00.907Z,9.42
2023-03-26T18:37:39.420Z,9.39
2023-03-26T18:40:19.428Z,9.36
2023-03-26T18:42:53.651Z,9.33
2023-03-26T18:45:30.177Z,9.33
2023-03-26T18:48:06.440Z,9.32
2023-03-26T18:50:41.655Z,9.29
2023-03-26T18:53:20.858Z,9.28
2023-03-26T18:55:54.022Z,9.25
2023-03-26T18:58:30.385Z,9.21
2023-03-26T19:01:05.050Z,9.14
2023-03-26T19:03:40.566Z,9.12
2023-03-26T19:06:15.994Z,9.10
2023-03-26T19:08:50.097Z,9.07
2023-03-26T19:11:23.533Z,9.07
2023-03-26T19:14:08.002Z,9.06
2023-03-26T19:16:43.847Z,9.06
2023-03-26T19:19:23.171Z,9.03
2023-03-26T19:21:57.895Z,8.98
2023-03-26T19:24:32.047Z,8.92
2023-03-26T19:27:04.985Z,8.84
2023-03-26T19:29:38.540Z,8.79
2023-03-26T19:32:21.853Z,8.74
2023-03-26T19:34:55.132Z,8.71
2023-03-26T19:37:30.102Z,8.75
2023-03-26T19:40:14.439Z,8.81
2023-03-26T19:42:47.767Z,8.87
2023-03-26T19:45:25.844Z,8.92
2023-03-26T19:48:07.729Z,8.97
2023-03-26T19:50:57.766Z,9.01
2023-03-26T19:53:37.384Z,9.01
2023-03-26T19:56:18.865Z,8.98
2023-03-26T19:58:51.504Z,8.96
2023-03-26T20:01:26.945Z,8.89
2023-03-26T20:04:01.736Z,8.84
2023-03-26T20:06:43.216Z,8.77
2023-03-26T20:09:16.493Z,8.70
2023-03-26T20:11:48.668Z,8.71
2023-03-26T20:14:26.278Z,8.71
2023-03-26T20:16:58.905Z,8.80
2023-03-26T20:19:31.061Z,8.87
2023-03-26T20:22:03.140Z,8.88
2023-03-26T20:24:36.617Z,8.88
2023-03-26T20:27:08.806Z,8.88
2023-03-26T20:29:41.382Z,8.87
2023-03-26T20:32:23.610Z,8.84
2023-03-26T20:34:57.814Z,8.79
2023-03-26T20:37:29.928Z,8.78
2023-03-26T20:40:02.037Z,8.76
2023-03-26T20:42:35.942Z,8.76
2023-03-26T20:45:18.095Z,8.82
2023-03-26T20:47:51.444Z,8.93
2023-03-26T20:50:24.582Z,8.97
2023-03-26T20:52:56.814Z,9.00
2023-03-26T20:55:29.426Z,9.02
2023-03-26T20:58:01.657Z,9.09
2023-03-26T21:00:34.044Z,9.14
2023-03-26T21:03:06.227Z,9.11
2023-03-26T21:05:39.381Z,9.07
2023-03-26T21:08:18.293Z,9.03
2023-03-26T21:10:51.410Z,9.01
2023-03-26T21:13:33.633Z,8.99
2023-03-26T21:16:04.496Z,8.98
2023-03-26T21:18:37.634Z,8.99
2023-03-26T21:21:25.174Z,8.99
2023-03-26T21:24:06.469Z,9.00
2023-03-26T21:26:45.009Z,9.02
2023-03-26T21:29:19.190Z,9.03
2023-03-26T21:31:54.008Z,9.10
2023-03-26T21:34:29.346Z,9.13
2023-03-26T21:37:02.731Z,9.13
2023-03-26T21:39:35.660Z,9.19
2023-03-26T21:42:09.145Z,9.26
2023-03-26T21:44:42.654Z,9.31
2023-03-26T21:47:16.088Z,9.35
2023-03-26T21:49:49.400Z,9.41
2023-03-26T21:52:22.747Z,9.47
2023-03-26T21:54:58.177Z,9.44
2023-03-26T21:57:45.871Z,9.37
2023-03-26T22:00:20.799Z,9.27
2023-03-26T22:03:08.408Z,9.17
2023-03-26T22:05:48.658Z,9.14
2023-03-26T22:08:28.614Z,9.05
2023-03-26T22:11:00.750Z,8.95
2023-03-26T22:13:32.817Z,8.88
2023-03-26T22:16:05.298Z,8.85
2023-03-26T22:18:37.977Z,8.87
2023-03-26T22:21:10.582Z,8.87
2023-03-26T22:23:42.619Z,8.87
2023-03-26T22:26:14.586Z,8.83
2023-03-26T22:28:47.006Z,8.76
2023-03-26T22:31:19.352Z,8.62
2023-03-26T22:33:51.913Z,8.47
2023-03-26T22:36:25.409Z,8.44
2023-03-26T22:38:58.310Z,8.46
2023-03-26T22:41:30.702Z,8.52
2023-03-26T22:44:16.822Z,8.57
2023-03-26T22:46:52.521Z,8.63
2023-03-26T22:49:27.569Z,8.59
2023-03-26T22:51:59.692Z,8.63
2023-03-26T22:54:31.795Z,8.59
2023-03-26T22:57:04.177Z,8.63
2023-03-26T22:59:36.284Z,8.65
2023-03-26T23:02:10.030Z,8.68
2023-03-26T23:04:42.938Z,8.63
2023-03-26T23:07:15.717Z,8.59
2023-03-26T23:09:47.781Z,8.40
2023-03-26T23:12:19.731Z,8.32
2023-03-26T23:14:53.143Z,8.35
2023-03-26T23:17:25.973Z,8.38
2023-03-26T23:19:57.974Z,8.56
2023-03-26T23:22:30.037Z,8.76
2023-03-26T23:25:02.028Z,8.80
2023-03-26T23:27:34.202Z,8.73
2023-03-26T23:30:11.012Z,8.69
2023-03-26T23:32:43.342Z,8.76
2023-03-26T23:35:15.704Z,8.78
2023-03-26T23:37:51.107Z,8.77
2023-03-26T23:40:23.129Z,8.82
2023-03-26T23:42:55.291Z,8.87
2023-03-26T23:45:27.817Z,8.88
2023-03-26T23:47:59.960Z,8.76
2023-03-26T23:50:32.010Z,8.59
2023-03-26T23:53:04.125Z,8.46
2023-03-26T23:55:36.734Z,8.40
2023-03-26T23:58:08.924Z,8.34
